Vernon, TX

12:46 PM CDT on July 24, 2014 (GMT -0500)
Vernon (KF05) Elev 1266 ft | 34.23 °N, 99.28 °W | Change Station
Active Advisory: Heat Advisory

Current weather conditions updated 11 minutes ago

Clear
Clear
92 °F
Feels Like 96 °F
N
5
Wind Variable Wind from SSE

Today is forecast to be nearly the same temperature as yesterday.

Today
High -- | Low -- °F
--% Chance of Precip.
Yesterday
High -- | Low -- °F
Precip. -- in
6:42 AM 8:44 PM
Waning Crescent, 4% visible
Pressure 30.07 in
Visibility 10.0 miles
Clouds Clear
Heat Index 96 °F
Dew Point 67 °F
Humidity 43%
Rainfall 0.00 in
Snow Depth Not available.
UV 11 out of 12
Pollen 4.80 out of 12
Air Quality Not available.
Flu Activity Not available.
METAR KF05 241735Z AUTO 15004KT 10SM CLR 34/19 A3007 RMK AO1 T03350194

More Conditions Fewer Conditions

Pressure 30.07 in
Visibility 10.0 miles
Clouds Clear
Heat Index 96 °F
Dew Point 67 °F
Humidity 43%
Rainfall 0.00 in
Snow Depth Not available.
UV 11 out of 12
Pollen 4.80 out of 12
Air Quality Not available.
Flu Activity Not available.
METAR KF05 241735Z AUTO 15004KT 10SM CLR 34/19 A3007 RMK AO1 T03350194

More Conditions Fewer Conditions

10-Day Weather Forecast

Almanac

Astronomy

Jul. 24, 2014 Rise Set
Actual Time 6:42 AM CDT 8:44 PM CDT
Civil Twilight 6:14 AM CDT 9:12 PM CDT
Nautical Twilight 5:40 AM CDT 9:46 PM CDT
Astronomical Twilight 5:03 AM CDT 10:22 PM CDT
Moon 4:50 AM CDT 7:02 PM CDT
Length of Visible Light 14h 58m
Length of Day
14h 02m
Tomorrow will be 1m 24s shorter.
Waning Crescent, 4% of the Moon is Illuminated
Today
Waning Crescent
Jul 26
New
Aug 3
First Quarter
Aug 10
Full
Aug 17
Last Quarter

Today's Extremes

State Highs State Lows

Community

WunderPhotos

Upload Photos

1,737,079 photos uploaded!

Nearby

Snow Depth

Station Depth Elevation
No new snow has been reported.

Earthquake Activity

City Distance Mag. Time & Date
Spencer, Oklahoma 142 miles 2.7 4:56 PM CDT
2014-07-18
Guthrie, Oklahoma 158 miles 2.9 8:59 PM CDT
2014-07-17
Perry, Oklahoma 172 miles 2.8 8:37 PM CDT
2014-07-17
Minimum magnitude displayed is 2.5.

Coastal Water Temperatures

Place Temperature
No Stations Reporting

Nearby Weather Stations

Station Location Temp. Heat Index Dew Point Humidity Wind Precip. Elev Updated Type
Northside ISD, Vernon, TX 90.1 °F 97 °F 72 °F 55% East  at  5.0 mph 0.00 in / hr 1317 ft 12:46 PM CDT Rapid Fire
Turner Home, Odell, TX 93.1 °F 103 °F 74 °F 54% SE  at  4.0 mph 0.00 in / hr 1347 ft 12:46 PM CDT Rapid Fire
KD5PBR Turner Farm, Odell, TX 93.5 °F 104 °F 74 °F 53% ESE  at  1.0 mph 0.00 in / hr 1341 ft 12:46 PM CDT Rapid Fire
Hardeman, Chillicothe, TX 95.3 °F 104 °F 72 °F 47% SSE  at  5.0 mph 0.00 in / hr 1421 ft 12:46 PM CDT Rapid Fire
Chillicothe Grain Elevator, Chillicothe, TX 95.8 °F 102 °F 70 °F 43% South  at  2.0 mph 0.00 in / hr 1401 ft 12:44 PM CDT Normal
thalia northeast, Thalia, TX 92.8 °F 100 °F 71 °F 49% West  at  6.0 mph 0.00 in / hr 1358 ft 12:46 PM CDT Rapid Fire

Show More Stations Show Fewer Stations